sensor_id;sensor_type;location;lat;lon;timestamp;pressure;altitude;pressure_sealevel;temperature;humidity
52307;BME280;38249;48.920;12.882;2022-11-15T00:01:26;97050.06;;;11.17;53.42
52307;BME280;38249;48.920;12.882;2022-11-15T00:03:53;97045.28;;;11.14;53.35
52307;BME280;38249;48.920;12.882;2022-11-15T00:06:19;97043.69;;;11.13;53.02
52307;BME280;38249;48.920;12.882;2022-11-15T00:08:46;97042.72;;;11.09;53.18
52307;BME280;38249;48.920;12.882;2022-11-15T00:11:13;97041.69;;;11.05;53.47
52307;BME280;38249;48.920;12.882;2022-11-15T00:13:41;97031.78;;;11.19;53.07
52307;BME280;38249;48.920;12.882;2022-11-15T00:16:09;97031.47;;;11.21;53.56
52307;BME280;38249;48.920;12.882;2022-11-15T00:18:35;97032.38;;;11.02;53.55
52307;BME280;38249;48.920;12.882;2022-11-15T00:21:05;97027.28;;;11.14;53.38
52307;BME280;38249;48.920;12.882;2022-11-15T00:23:32;97024.81;;;11.04;53.64
52307;BME280;38249;48.920;12.882;2022-11-15T00:25:59;97027.81;;;11.03;53.81
52307;BME280;38249;48.920;12.882;2022-11-15T00:28:26;97025.53;;;10.96;53.25
52307;BME280;38249;48.920;12.882;2022-11-15T00:30:59;97014.59;;;11.20;53.69
52307;BME280;38249;48.920;12.882;2022-11-15T00:33:27;97017.66;;;10.99;53.65
52307;BME280;38249;48.920;12.882;2022-11-15T00:35:59;97019.47;;;11.18;53.60
52307;BME280;38249;48.920;12.882;2022-11-15T00:38:30;97012.00;;;11.15;53.48
52307;BME280;38249;48.920;12.882;2022-11-15T00:40:57;97018.84;;;10.93;53.71
52307;BME280;38249;48.920;12.882;2022-11-15T00:43:23;97018.38;;;10.91;53.49
52307;BME280;38249;48.920;12.882;2022-11-15T00:45:50;97004.97;;;10.91;53.82
52307;BME280;38249;48.920;12.882;2022-11-15T00:48:18;97011.31;;;11.09;53.36
52307;BME280;38249;48.920;12.882;2022-11-15T00:50:45;97005.75;;;10.92;53.57
52307;BME280;38249;48.920;12.882;2022-11-15T00:53:11;97005.44;;;10.93;53.39
52307;BME280;38249;48.920;12.882;2022-11-15T00:55:38;97003.97;;;10.87;53.38
52307;BME280;38249;48.920;12.882;2022-11-15T00:58:05;96996.22;;;10.86;53.55
52307;BME280;38249;48.920;12.882;2022-11-15T01:00:31;96997.50;;;10.88;53.87
52307;BME280;38249;48.920;12.882;2022-11-15T01:02:59;96991.34;;;11.01;53.58
52307;BME280;38249;48.920;12.882;2022-11-15T01:05:27;96990.06;;;10.99;53.68
52307;BME280;38249;48.920;12.882;2022-11-15T01:07:54;96985.50;;;10.86;54.05
52307;BME280;38249;48.920;12.882;2022-11-15T01:10:21;96977.34;;;10.91;53.67
52307;BME280;38249;48.920;12.882;2022-11-15T01:12:49;96982.91;;;10.94;54.01
52307;BME280;38249;48.920;12.882;2022-11-15T01:15:16;96974.78;;;10.86;53.92
52307;BME280;38249;48.920;12.882;2022-11-15T01:17:43;96973.66;;;10.87;53.64
52307;BME280;38249;48.920;12.882;2022-11-15T01:20:10;96981.59;;;10.92;53.89
52307;BME280;38249;48.920;12.882;2022-11-15T01:22:38;96977.63;;;11.03;53.98
52307;BME280;38249;48.920;12.882;2022-11-15T01:25:05;96973.78;;;10.95;53.61
52307;BME280;38249;48.920;12.882;2022-11-15T01:27:32;96977.16;;;10.87;53.71
52307;BME280;38249;48.920;12.882;2022-11-15T01:29:58;96972.88;;;10.86;53.86
52307;BME280;38249;48.920;12.882;2022-11-15T01:32:25;96975.38;;;10.82;53.74
52307;BME280;38249;48.920;12.882;2022-11-15T01:34:51;96975.06;;;10.84;54.07
52307;BME280;38249;48.920;12.882;2022-11-15T01:37:18;96969.41;;;10.86;53.82
52307;BME280;38249;48.920;12.882;2022-11-15T01:39:46;96968.78;;;11.03;53.62
52307;BME280;38249;48.920;12.882;2022-11-15T01:42:13;96968.00;;;10.88;54.02
52307;BME280;38249;48.920;12.882;2022-11-15T01:44:45;96968.97;;;11.06;54.18
52307;BME280;38249;48.920;12.882;2022-11-15T01:47:15;96969.09;;;11.01;53.96
52307;BME280;38249;48.920;12.882;2022-11-15T01:49:49;96964.72;;;11.05;53.69
52307;BME280;38249;48.920;12.882;2022-11-15T01:52:20;96964.84;;;11.00;53.83
52307;BME280;38249;48.920;12.882;2022-11-15T01:54:52;96959.97;;;11.02;53.85
52307;BME280;38249;48.920;12.882;2022-11-15T01:57:20;96958.78;;;10.80;53.76
52307;BME280;38249;48.920;12.882;2022-11-15T01:59:47;96951.13;;;10.74;53.78
52307;BME280;38249;48.920;12.882;2022-11-15T02:02:14;96941.69;;;10.76;54.03
52307;BME280;38249;48.920;12.882;2022-11-15T02:04:42;96947.25;;;10.80;54.26
52307;BME280;38249;48.920;12.882;2022-11-15T02:07:11;96952.03;;;10.83;54.03
52307;BME280;38249;48.920;12.882;2022-11-15T02:13:01;96942.19;;;10.78;54.16
52307;BME280;38249;48.920;12.882;2022-11-15T02:15:35;96941.00;;;10.85;53.99
52307;BME280;38249;48.920;12.882;2022-11-15T02:18:11;96941.59;;;10.81;54.18
52307;BME280;38249;48.920;12.882;2022-11-15T02:20:55;96937.72;;;10.88;54.27
52307;BME280;38249;48.920;12.882;2022-11-15T02:23:45;96938.91;;;10.95;53.57
52307;BME280;38249;48.920;12.882;2022-11-15T02:26:39;96933.03;;;10.93;53.55
52307;BME280;38249;48.920;12.882;2022-11-15T02:29:19;96930.75;;;10.87;54.00
52307;BME280;38249;48.920;12.882;2022-11-15T02:31:55;96932.06;;;10.75;54.30
52307;BME280;38249;48.920;12.882;2022-11-15T02:34:30;96918.88;;;10.65;54.27
52307;BME280;38249;48.920;12.882;2022-11-15T02:37:05;96922.56;;;10.69;54.41
52307;BME280;38249;48.920;12.882;2022-11-15T02:39:37;96921.06;;;10.63;54.16
52307;BME280;38249;48.920;12.882;2022-11-15T02:42:12;96917.97;;;10.70;54.47
52307;BME280;38249;48.920;12.882;2022-11-15T02:44:56;96916.19;;;10.65;54.05
52307;BME280;38249;48.920;12.882;2022-11-15T02:47:27;96916.69;;;10.67;54.36
52307;BME280;38249;48.920;12.882;2022-11-15T02:49:58;96907.16;;;10.61;54.60
52307;BME280;38249;48.920;12.882;2022-11-15T02:52:27;96904.88;;;10.40;54.81
52307;BME280;38249;48.920;12.882;2022-11-15T02:54:54;96908.06;;;10.56;54.62
52307;BME280;38249;48.920;12.882;2022-11-15T02:57:29;96904.09;;;10.68;54.60
52307;BME280;38249;48.920;12.882;2022-11-15T03:00:04;96908.63;;;10.67;54.26
52307;BME280;38249;48.920;12.882;2022-11-15T03:02:42;96900.81;;;10.71;54.39
52307;BME280;38249;48.920;12.882;2022-11-15T03:05:19;96898.81;;;10.62;54.42
52307;BME280;38249;48.920;12.882;2022-11-15T03:07:50;96893.63;;;10.80;53.80
52307;BME280;38249;48.920;12.882;2022-11-15T03:10:22;96896.34;;;10.52;54.72
52307;BME280;38249;48.920;12.882;2022-11-15T03:12:55;96897.63;;;10.55;54.76
52307;BME280;38249;48.920;12.882;2022-11-15T03:15:26;96901.28;;;10.59;54.55
52307;BME280;38249;48.920;12.882;2022-11-15T03:17:59;96897.53;;;10.60;54.67
52307;BME280;38249;48.920;12.882;2022-11-15T03:20:27;96897.16;;;10.53;54.46
52307;BME280;38249;48.920;12.882;2022-11-15T03:22:58;96899.44;;;10.59;54.73
52307;BME280;38249;48.920;12.882;2022-11-15T03:25:28;96892.47;;;10.58;54.83
52307;BME280;38249;48.920;12.882;2022-11-15T03:27:58;96889.09;;;10.67;54.35
52307;BME280;38249;48.920;12.882;2022-11-15T03:30:28;96886.31;;;10.58;54.72
52307;BME280;38249;48.920;12.882;2022-11-15T03:33:00;96889.38;;;10.65;54.43
52307;BME280;38249;48.920;12.882;2022-11-15T03:35:30;96885.22;;;10.59;54.59
52307;BME280;38249;48.920;12.882;2022-11-15T03:38:05;96877.88;;;10.64;54.64
52307;BME280;38249;48.920;12.882;2022-11-15T03:40:38;96885.41;;;10.62;54.57
52307;BME280;38249;48.920;12.882;2022-11-15T03:43:10;96880.25;;;10.66;54.83
52307;BME280;38249;48.920;12.882;2022-11-15T03:45:44;96870.72;;;10.60;54.71
52307;BME280;38249;48.920;12.882;2022-11-15T03:48:17;96871.50;;;10.60;54.96
52307;BME280;38249;48.920;12.882;2022-11-15T03:50:45;96870.53;;;10.42;55.36
52307;BME280;38249;48.920;12.882;2022-11-15T03:53:13;96872.91;;;10.44;54.95
52307;BME280;38249;48.920;12.882;2022-11-15T03:55:39;96866.88;;;10.38;54.93
52307;BME280;38249;48.920;12.882;2022-11-15T03:58:06;96862.78;;;10.41;55.23
52307;BME280;38249;48.920;12.882;2022-11-15T04:00:33;96867.84;;;10.42;55.19
52307;BME280;38249;48.920;12.882;2022-11-15T04:02:59;96859.50;;;10.44;55.40
52307;BME280;38249;48.920;12.882;2022-11-15T04:05:27;96860.00;;;10.60;55.49
52307;BME280;38249;48.920;12.882;2022-11-15T04:07:54;96856.34;;;10.42;55.10
52307;BME280;38249;48.920;12.882;2022-11-15T04:10:21;96856.25;;;10.47;55.50
52307;BME280;38249;48.920;12.882;2022-11-15T04:12:47;96851.97;;;10.46;55.41
52307;BME280;38249;48.920;12.882;2022-11-15T04:15:16;96861.28;;;10.62;55.50
52307;BME280;38249;48.920;12.882;2022-11-15T04:17:44;96849.09;;;10.56;55.23
52307;BME280;38249;48.920;12.882;2022-11-15T04:20:17;96851.56;;;10.67;55.21
52307;BME280;38249;48.920;12.882;2022-11-15T04:23:05;96844.81;;;10.69;55.34
52307;BME280;38249;48.920;12.882;2022-11-15T04:25:52;96845.53;;;10.61;55.19
52307;BME280;38249;48.920;12.882;2022-11-15T04:28:20;96838.06;;;10.58;55.46
52307;BME280;38249;48.920;12.882;2022-11-15T04:30:50;96839.09;;;10.48;55.70
52307;BME280;38249;48.920;12.882;2022-11-15T04:33:17;96834.22;;;10.50;55.42
52307;BME280;38249;48.920;12.882;2022-11-15T04:35:43;96832.59;;;10.49;55.74
52307;BME280;38249;48.920;12.882;2022-11-15T04:38:31;96836.56;;;10.66;55.35
52307;BME280;38249;48.920;12.882;2022-11-15T04:40:57;96836.88;;;10.50;55.69
52307;BME280;38249;48.920;12.882;2022-11-15T04:43:24;96832.13;;;10.47;55.62
52307;BME280;38249;48.920;12.882;2022-11-15T04:45:50;96831.63;;;10.45;55.89
52307;BME280;38249;48.920;12.882;2022-11-15T04:48:17;96832.13;;;10.47;55.88
52307;BME280;38249;48.920;12.882;2022-11-15T04:50:44;96828.06;;;10.50;55.84
52307;BME280;38249;48.920;12.882;2022-11-15T04:53:10;96825.88;;;10.52;55.95
52307;BME280;38249;48.920;12.882;2022-11-15T04:55:39;96828.22;;;10.67;55.72
52307;BME280;38249;48.920;12.882;2022-11-15T04:58:05;96822.09;;;10.53;55.64
52307;BME280;38249;48.920;12.882;2022-11-15T05:00:32;96817.03;;;10.51;55.76
52307;BME280;38249;48.920;12.882;2022-11-15T05:02:59;96824.78;;;10.53;55.87
52307;BME280;38249;48.920;12.882;2022-11-15T05:05:43;96820.69;;;10.55;55.88
52307;BME280;38249;48.920;12.882;2022-11-15T05:08:10;96826.53;;;10.57;55.65
52307;BME280;38249;48.920;12.882;2022-11-15T05:10:36;96818.81;;;10.56;55.71
52307;BME280;38249;48.920;12.882;2022-11-15T05:13:04;96813.91;;;10.72;55.80
52307;BME280;38249;48.920;12.882;2022-11-15T05:15:31;96816.13;;;10.56;55.80
52307;BME280;38249;48.920;12.882;2022-11-15T05:17:58;96805.38;;;10.70;56.02
52307;BME280;38249;48.920;12.882;2022-11-15T05:20:26;96809.25;;;10.63;55.84
52307;BME280;38249;48.920;12.882;2022-11-15T05:22:52;96801.34;;;10.58;56.05
52307;BME280;38249;48.920;12.882;2022-11-15T05:25:19;96798.97;;;10.57;55.98
52307;BME280;38249;48.920;12.882;2022-11-15T05:27:46;96798.34;;;10.60;55.82
52307;BME280;38249;48.920;12.882;2022-11-15T05:30:15;96799.59;;;10.76;56.22
52307;BME280;38249;48.920;12.882;2022-11-15T05:32:42;96788.59;;;10.64;56.18
52307;BME280;38249;48.920;12.882;2022-11-15T05:35:12;96796.50;;;10.83;55.85
52307;BME280;38249;48.920;12.882;2022-11-15T05:37:41;96800.13;;;10.64;55.88
52307;BME280;38249;48.920;12.882;2022-11-15T05:40:08;96800.63;;;10.67;55.87
52307;BME280;38249;48.920;12.882;2022-11-15T05:42:35;96788.91;;;10.62;55.71
52307;BME280;38249;48.920;12.882;2022-11-15T05:45:03;96791.69;;;10.71;55.95
52307;BME280;38249;48.920;12.882;2022-11-15T05:47:34;96791.09;;;10.74;55.44
52307;BME280;38249;48.920;12.882;2022-11-15T05:50:03;96793.13;;;10.55;55.72
52307;BME280;38249;48.920;12.882;2022-11-15T05:52:31;96788.84;;;10.54;55.58
52307;BME280;38249;48.920;12.882;2022-11-15T05:55:00;96788.25;;;10.29;55.77
52307;BME280;38249;48.920;12.882;2022-11-15T05:57:27;96792.13;;;10.23;55.34
52307;BME280;38249;48.920;12.882;2022-11-15T05:59:54;96783.59;;;10.21;55.69
52307;BME280;38249;48.920;12.882;2022-11-15T06:02:21;96781.63;;;10.13;55.65
52307;BME280;38249;48.920;12.882;2022-11-15T06:04:49;96779.03;;;10.21;55.64
52307;BME280;38249;48.920;12.882;2022-11-15T06:07:16;96774.16;;;9.96;55.70
52307;BME280;38249;48.920;12.882;2022-11-15T06:09:42;96787.56;;;9.96;55.42
52307;BME280;38249;48.920;12.882;2022-11-15T06:12:09;96775.38;;;9.89;55.47
52307;BME280;38249;48.920;12.882;2022-11-15T06:14:36;96784.59;;;9.83;55.41
52307;BME280;38249;48.920;12.882;2022-11-15T06:17:02;96789.13;;;9.69;55.20
52307;BME280;38249;48.920;12.882;2022-11-15T06:19:29;96792.97;;;9.63;55.46
52307;BME280;38249;48.920;12.882;2022-11-15T06:21:59;96796.38;;;9.68;55.56
52307;BME280;38249;48.920;12.882;2022-11-15T06:24:26;96801.59;;;9.46;55.66
52307;BME280;38249;48.920;12.882;2022-11-15T06:26:53;96798.91;;;9.46;55.60
52307;BME280;38249;48.920;12.882;2022-11-15T06:29:20;96798.16;;;9.26;55.93
52307;BME280;38249;48.920;12.882;2022-11-15T06:31:46;96789.94;;;9.23;56.04
52307;BME280;38249;48.920;12.882;2022-11-15T06:34:13;96793.31;;;9.28;55.96
52307;BME280;38249;48.920;12.882;2022-11-15T06:36:39;96786.88;;;9.29;55.83
52307;BME280;38249;48.920;12.882;2022-11-15T06:39:07;96780.47;;;9.44;56.05
52307;BME280;38249;48.920;12.882;2022-11-15T06:41:35;96783.81;;;9.36;56.02
52307;BME280;38249;48.920;12.882;2022-11-15T06:44:02;96786.22;;;9.38;56.03
52307;BME280;38249;48.920;12.882;2022-11-15T06:46:28;96789.25;;;9.31;56.01
52307;BME280;38249;48.920;12.882;2022-11-15T06:48:55;96786.50;;;9.36;56.03
52307;BME280;38249;48.920;12.882;2022-11-15T06:51:22;96780.84;;;9.38;56.28
52307;BME280;38249;48.920;12.882;2022-11-15T06:53:48;96771.22;;;9.36;56.08
52307;BME280;38249;48.920;12.882;2022-11-15T06:56:16;96766.69;;;9.51;56.10
52307;BME280;38249;48.920;12.882;2022-11-15T06:58:43;96773.63;;;9.38;56.10
52307;BME280;38249;48.920;12.882;2022-11-15T07:01:11;96771.09;;;9.61;55.97
52307;BME280;38249;48.920;12.882;2022-11-15T07:03:40;96765.81;;;9.69;55.82
52307;BME280;38249;48.920;12.882;2022-11-15T07:06:07;96779.13;;;9.88;55.30
52307;BME280;38249;48.920;12.882;2022-11-15T07:08:34;96776.97;;;10.04;54.97
52307;BME280;38249;48.920;12.882;2022-11-15T07:11:05;96778.53;;;10.47;54.40
52307;BME280;38249;48.920;12.882;2022-11-15T07:13:34;96781.06;;;10.66;54.08
52307;BME280;38249;48.920;12.882;2022-11-15T07:16:03;96782.50;;;10.86;53.62
52307;BME280;38249;48.920;12.882;2022-11-15T07:18:30;96776.59;;;10.98;53.34
52307;BME280;38249;48.920;12.882;2022-11-15T07:21:00;96780.88;;;11.53;52.64
52307;BME280;38249;48.920;12.882;2022-11-15T07:23:27;96783.00;;;11.65;52.18
52307;BME280;38249;48.920;12.882;2022-11-15T07:25:56;96791.09;;;11.96;51.79
52307;BME280;38249;48.920;12.882;2022-11-15T07:28:22;96783.66;;;11.93;51.72
52307;BME280;38249;48.920;12.882;2022-11-15T07:30:51;96784.84;;;12.27;51.90
52307;BME280;38249;48.920;12.882;2022-11-15T07:33:17;96792.59;;;12.28;50.84
52307;BME280;38249;48.920;12.882;2022-11-15T07:35:44;96794.34;;;12.33;50.53
52307;BME280;38249;48.920;12.882;2022-11-15T07:38:14;96790.09;;;12.50;50.79
52307;BME280;38249;48.920;12.882;2022-11-15T07:40:45;96794.25;;;12.82;49.79
52307;BME280;38249;48.920;12.882;2022-11-15T07:43:12;96794.44;;;13.03;49.28
52307;BME280;38249;48.920;12.882;2022-11-15T07:45:41;96796.31;;;13.37;49.03
52307;BME280;38249;48.920;12.882;2022-11-15T07:48:09;96795.22;;;13.38;48.99
52307;BME280;38249;48.920;12.882;2022-11-15T07:50:37;96795.03;;;13.52;48.91
52307;BME280;38249;48.920;12.882;2022-11-15T07:53:08;96797.50;;;13.75;48.08
52307;BME280;38249;48.920;12.882;2022-11-15T07:55:35;96800.00;;;13.80;47.80
52307;BME280;38249;48.920;12.882;2022-11-15T07:58:02;96792.50;;;14.03;47.40
52307;BME280;38249;48.920;12.882;2022-11-15T08:00:29;96789.63;;;14.08;47.20
52307;BME280;38249;48.920;12.882;2022-11-15T08:03:04;96786.16;;;14.38;46.64
52307;BME280;38249;48.920;12.882;2022-11-15T08:05:32;96785.56;;;14.53;45.68
52307;BME280;38249;48.920;12.882;2022-11-15T08:07:59;96781.53;;;14.38;46.78
52307;BME280;38249;48.920;12.882;2022-11-15T08:10:26;96778.91;;;14.80;46.25
52307;BME280;38249;48.920;12.882;2022-11-15T08:12:57;96779.84;;;15.39;45.50
52307;BME280;38249;48.920;12.882;2022-11-15T08:15:25;96781.34;;;15.61;44.90
52307;BME280;38249;48.920;12.882;2022-11-15T08:17:55;96783.56;;;16.05;44.46
52307;BME280;38249;48.920;12.882;2022-11-15T08:20:22;96777.75;;;16.15;44.42
52307;BME280;38249;48.920;12.882;2022-11-15T08:22:50;96778.13;;;16.66;43.81
52307;BME280;38249;48.920;12.882;2022-11-15T08:25:17;96776.72;;;16.97;43.12
52307;BME280;38249;48.920;12.882;2022-11-15T08:27:44;96766.97;;;17.37;42.61
52307;BME280;38249;48.920;12.882;2022-11-15T08:30:11;96767.47;;;17.27;42.51
52307;BME280;38249;48.920;12.882;2022-11-15T08:32:39;96766.13;;;17.93;41.20
52307;BME280;38249;48.920;12.882;2022-11-15T08:35:06;96769.97;;;18.08;40.57
52307;BME280;38249;48.920;12.882;2022-11-15T08:37:33;96772.31;;;18.09;40.51
52307;BME280;38249;48.920;12.882;2022-11-15T08:40:02;96766.00;;;18.21;40.39
52307;BME280;38249;48.920;12.882;2022-11-15T08:42:28;96768.03;;;17.92;40.06
52307;BME280;38249;48.920;12.882;2022-11-15T08:44:55;96777.53;;;17.86;40.32
52307;BME280;38249;48.920;12.882;2022-11-15T08:47:22;96770.81;;;17.80;40.28
52307;BME280;38249;48.920;12.882;2022-11-15T08:49:49;96772.94;;;18.03;39.99
52307;BME280;38249;48.920;12.882;2022-11-15T08:52:16;96778.25;;;18.15;39.98
52307;BME280;38249;48.920;12.882;2022-11-15T08:54:42;96768.81;;;17.93;39.50
52307;BME280;38249;48.920;12.882;2022-11-15T08:57:10;96765.59;;;18.03;39.89
52307;BME280;38249;48.920;12.882;2022-11-15T08:59:38;96764.06;;;18.38;39.48
52307;BME280;38249;48.920;12.882;2022-11-15T09:02:05;96753.47;;;18.32;39.52
52307;BME280;38249;48.920;12.882;2022-11-15T09:04:33;96765.47;;;18.67;39.09
52307;BME280;38249;48.920;12.882;2022-11-15T09:06:59;96762.09;;;19.09;38.96
52307;BME280;38249;48.920;12.882;2022-11-15T09:09:26;96769.81;;;19.46;38.01
52307;BME280;38249;48.920;12.882;2022-11-15T09:11:52;96759.22;;;19.84;37.44
52307;BME280;38249;48.920;12.882;2022-11-15T09:14:20;96760.09;;;20.14;37.14
52307;BME280;38249;48.920;12.882;2022-11-15T09:16:47;96754.25;;;20.39;36.86
52307;BME280;38249;48.920;12.882;2022-11-15T09:19:13;96758.44;;;20.86;36.08
52307;BME280;38249;48.920;12.882;2022-11-15T09:21:40;96752.97;;;20.86;35.69
52307;BME280;38249;48.920;12.882;2022-11-15T09:24:08;96750.56;;;21.15;35.38
52307;BME280;38249;48.920;12.882;2022-11-15T09:26:34;96761.50;;;21.49;35.55
52307;BME280;38249;48.920;12.882;2022-11-15T09:29:01;96745.91;;;21.91;35.26
52307;BME280;38249;48.920;12.882;2022-11-15T09:31:29;96749.78;;;22.35;34.43
52307;BME280;38249;48.920;12.882;2022-11-15T09:33:56;96748.66;;;22.43;33.99
52307;BME280;38249;48.920;12.882;2022-11-15T09:36:23;96738.16;;;22.48;33.95
52307;BME280;38249;48.920;12.882;2022-11-15T09:38:49;96737.84;;;22.57;33.58
52307;BME280;38249;48.920;12.882;2022-11-15T09:41:29;96731.84;;;23.11;32.82
52307;BME280;38249;48.920;12.882;2022-11-15T09:44:14;96727.22;;;23.29;32.64
52307;BME280;38249;48.920;12.882;2022-11-15T09:46:54;96722.44;;;23.04;32.67
52307;BME280;38249;48.920;12.882;2022-11-15T09:49:25;96727.19;;;23.22;32.32
52307;BME280;38249;48.920;12.882;2022-11-15T09:51:53;96726.41;;;23.25;31.53
52307;BME280;38249;48.920;12.882;2022-11-15T09:54:28;96731.91;;;22.48;32.33
52307;BME280;38249;48.920;12.882;2022-11-15T09:56:56;96727.63;;;22.47;33.17
52307;BME280;38249;48.920;12.882;2022-11-15T09:59:41;96711.59;;;23.37;32.04
52307;BME280;38249;48.920;12.882;2022-11-15T10:02:23;96717.06;;;23.22;31.38
52307;BME280;38249;48.920;12.882;2022-11-15T10:04:54;96713.88;;;23.10;31.94
52307;BME280;38249;48.920;12.882;2022-11-15T10:07:24;96714.34;;;23.44;31.56
52307;BME280;38249;48.920;12.882;2022-11-15T10:09:55;96713.59;;;23.47;31.83
52307;BME280;38249;48.920;12.882;2022-11-15T10:12:25;96708.09;;;23.58;31.73
52307;BME280;38249;48.920;12.882;2022-11-15T10:15:00;96700.72;;;23.73;31.27
52307;BME280;38249;48.920;12.882;2022-11-15T10:17:47;96694.84;;;24.03;30.51
52307;BME280;38249;48.920;12.882;2022-11-15T10:20:20;96689.38;;;23.64;31.26
52307;BME280;38249;48.920;12.882;2022-11-15T10:22:48;96686.28;;;23.97;31.13
52307;BME280;38249;48.920;12.882;2022-11-15T10:25:19;96682.75;;;25.18;29.60
52307;BME280;38249;48.920;12.882;2022-11-15T10:27:52;96681.56;;;25.30;28.74
52307;BME280;38249;48.920;12.882;2022-11-15T10:30:19;96666.38;;;25.07;29.60
52307;BME280;38249;48.920;12.882;2022-11-15T10:32:48;96664.22;;;24.55;29.82
52307;BME280;38249;48.920;12.882;2022-11-15T10:35:18;96657.31;;;24.07;30.85
52307;BME280;38249;48.920;12.882;2022-11-15T10:37:44;96649.00;;;24.36;31.41
52307;BME280;38249;48.920;12.882;2022-11-15T10:40:16;96644.13;;;24.91;30.62
52307;BME280;38249;48.920;12.882;2022-11-15T10:42:43;96637.41;;;25.02;30.03
52307;BME280;38249;48.920;12.882;2022-11-15T10:45:23;96630.56;;;25.32;28.82
52307;BME280;38249;48.920;12.882;2022-11-15T10:47:52;96624.56;;;25.52;29.42
52307;BME280;38249;48.920;12.882;2022-11-15T10:50:27;96620.84;;;25.73;28.99
52307;BME280;38249;48.920;12.882;2022-11-15T10:52:55;96620.13;;;26.48;28.78
52307;BME280;38249;48.920;12.882;2022-11-15T10:55:25;96607.38;;;27.20;27.09
52307;BME280;38249;48.920;12.882;2022-11-15T10:57:55;96597.53;;;26.68;27.67
52307;BME280;38249;48.920;12.882;2022-11-15T11:00:29;96596.78;;;26.64;28.01
52307;BME280;38249;48.920;12.882;2022-11-15T11:02:59;96582.13;;;26.40;28.56
52307;BME280;38249;48.920;12.882;2022-11-15T11:05:28;96585.47;;;27.13;27.56
52307;BME280;38249;48.920;12.882;2022-11-15T11:07:58;96567.53;;;27.04;27.99
52307;BME280;38249;48.920;12.882;2022-11-15T11:10:25;96562.97;;;26.94;27.73
52307;BME280;38249;48.920;12.882;2022-11-15T11:12:52;96564.94;;;26.94;27.44
52307;BME280;38249;48.920;12.882;2022-11-15T11:15:18;96561.47;;;26.89;27.20
52307;BME280;38249;48.920;12.882;2022-11-15T11:18:01;96560.84;;;27.29;27.02
52307;BME280;38249;48.920;12.882;2022-11-15T11:20:38;96557.41;;;27.49;26.86
52307;BME280;38249;48.920;12.882;2022-11-15T11:23:20;96549.94;;;27.49;26.63
52307;BME280;38249;48.920;12.882;2022-11-15T11:25:55;96552.69;;;27.49;26.85
52307;BME280;38249;48.920;12.882;2022-11-15T11:28:39;96548.41;;;27.92;25.75
52307;BME280;38249;48.920;12.882;2022-11-15T11:31:20;96544.34;;;26.78;26.94
52307;BME280;38249;48.920;12.882;2022-11-15T11:33:58;96531.28;;;26.55;27.38
52307;BME280;38249;48.920;12.882;2022-11-15T11:36:38;96524.59;;;27.11;27.66
52307;BME280;38249;48.920;12.882;2022-11-15T11:39:19;96526.84;;;27.43;27.66
52307;BME280;38249;48.920;12.882;2022-11-15T11:41:55;96530.38;;;27.87;27.10
52307;BME280;38249;48.920;12.882;2022-11-15T11:44:33;96521.53;;;27.76;26.27
52307;BME280;38249;48.920;12.882;2022-11-15T11:47:02;96516.47;;;27.51;26.61
52307;BME280;38249;48.920;12.882;2022-11-15T11:49:39;96514.31;;;27.62;27.88
52307;BME280;38249;48.920;12.882;2022-11-15T11:52:11;96510.22;;;27.70;26.88
52307;BME280;38249;48.920;12.882;2022-11-15T11:54:47;96504.53;;;27.81;26.73
52307;BME280;38249;48.920;12.882;2022-11-15T11:57:22;96506.19;;;27.98;25.28
52307;BME280;38249;48.920;12.882;2022-11-15T11:59:57;96494.28;;;27.38;26.24
52307;BME280;38249;48.920;12.882;2022-11-15T12:02:28;96485.63;;;26.61;27.79
52307;BME280;38249;48.920;12.882;2022-11-15T12:05:05;96492.03;;;25.89;28.42
52307;BME280;38249;48.920;12.882;2022-11-15T12:07:35;96491.41;;;25.74;29.33
52307;BME280;38249;48.920;12.882;2022-11-15T12:10:14;96501.06;;;25.52;29.72
52307;BME280;38249;48.920;12.882;2022-11-15T12:12:48;96489.63;;;25.15;30.33
52307;BME280;38249;48.920;12.882;2022-11-15T12:15:18;96489.22;;;24.68;30.49
52307;BME280;38249;48.920;12.882;2022-11-15T12:17:46;96494.75;;;24.57;30.54
52307;BME280;38249;48.920;12.882;2022-11-15T12:20:18;96499.31;;;24.78;30.17
52307;BME280;38249;48.920;12.882;2022-11-15T12:22:49;96488.88;;;24.55;30.47
52307;BME280;38249;48.920;12.882;2022-11-15T12:25:22;96491.88;;;24.79;30.49
52307;BME280;38249;48.920;12.882;2022-11-15T12:27:54;96483.94;;;24.95;29.95
52307;BME280;38249;48.920;12.882;2022-11-15T12:30:23;96479.31;;;25.30;30.00
52307;BME280;38249;48.920;12.882;2022-11-15T12:32:54;96478.06;;;25.38;29.55
52307;BME280;38249;48.920;12.882;2022-11-15T12:35:27;96472.84;;;25.06;29.75
52307;BME280;38249;48.920;12.882;2022-11-15T12:37:55;96463.72;;;24.75;29.96
52307;BME280;38249;48.920;12.882;2022-11-15T12:40:24;96458.19;;;24.78;30.04
52307;BME280;38249;48.920;12.882;2022-11-15T12:46:11;96461.09;;;24.57;30.36
52307;BME280;38249;48.920;12.882;2022-11-15T12:48:56;96455.97;;;24.59;30.07
52307;BME280;38249;48.920;12.882;2022-11-15T12:55:01;96443.19;;;24.94;29.59
52307;BME280;38249;48.920;12.882;2022-11-15T12:57:34;96440.22;;;24.74;29.81
52307;BME280;38249;48.920;12.882;2022-11-15T13:02:47;96440.56;;;24.16;30.49
52307;BME280;38249;48.920;12.882;2022-11-15T13:05:57;96438.41;;;24.56;30.59
52307;BME280;38249;48.920;12.882;2022-11-15T13:08:51;96430.75;;;24.85;29.74
52307;BME280;38249;48.920;12.882;2022-11-15T13:11:48;96427.81;;;25.07;29.37
52307;BME280;38249;48.920;12.882;2022-11-15T13:14:50;96416.19;;;25.34;29.17
52307;BME280;38249;48.920;12.882;2022-11-15T13:17:35;96418.69;;;25.17;29.31
52307;BME280;38249;48.920;12.882;2022-11-15T13:20:22;96415.63;;;25.08;29.21